sensor_id;sensor_type;location;lat;lon;timestamp;pressure;altitude;pressure_sealevel;temperature;humidity
7760;BME280;3924;48.830;9.262;2022-12-20T00:01:26;99207.56;;;2.19;90.32
7760;BME280;3924;48.830;9.262;2022-12-20T00:03:55;99201.63;;;2.17;90.28
7760;BME280;3924;48.830;9.262;2022-12-20T00:06:23;99195.84;;;2.20;90.36
7760;BME280;3924;48.830;9.262;2022-12-20T00:08:54;99195.25;;;2.18;90.40
7760;BME280;3924;48.830;9.262;2022-12-20T00:11:22;99191.97;;;2.16;90.46
7760;BME280;3924;48.830;9.262;2022-12-20T00:13:49;99188.09;;;2.12;90.33
7760;BME280;3924;48.830;9.262;2022-12-20T00:16:18;99191.22;;;2.09;90.24
7760;BME280;3924;48.830;9.262;2022-12-20T00:18:46;99170.88;;;2.08;90.58
7760;BME280;3924;48.830;9.262;2022-12-20T00:21:13;99178.28;;;2.06;90.58
7760;BME280;3924;48.830;9.262;2022-12-20T00:23:41;99177.47;;;2.05;90.51
7760;BME280;3924;48.830;9.262;2022-12-20T00:26:13;99172.13;;;2.05;90.50
7760;BME280;3924;48.830;9.262;2022-12-20T00:28:41;99169.69;;;2.04;90.27
7760;BME280;3924;48.830;9.262;2022-12-20T00:31:09;99148.13;;;1.99;90.41
7760;BME280;3924;48.830;9.262;2022-12-20T00:33:37;99146.72;;;1.96;90.60
7760;BME280;3924;48.830;9.262;2022-12-20T00:36:05;99145.53;;;1.92;90.83
7760;BME280;3924;48.830;9.262;2022-12-20T00:38:32;99145.53;;;1.92;90.48
7760;BME280;3924;48.830;9.262;2022-12-20T00:41:02;99151.09;;;1.90;90.78
7760;BME280;3924;48.830;9.262;2022-12-20T00:43:30;99149.94;;;1.86;90.63
7760;BME280;3924;48.830;9.262;2022-12-20T00:45:57;99161.66;;;1.85;90.73
7760;BME280;3924;48.830;9.262;2022-12-20T00:48:24;99151.16;;;1.84;90.84
7760;BME280;3924;48.830;9.262;2022-12-20T00:50:51;99155.09;;;1.81;90.63
7760;BME280;3924;48.830;9.262;2022-12-20T00:53:18;99156.75;;;1.82;90.99
7760;BME280;3924;48.830;9.262;2022-12-20T00:55:51;99162.09;;;1.82;90.85
7760;BME280;3924;48.830;9.262;2022-12-20T00:58:18;99165.72;;;1.88;90.91
7760;BME280;3924;48.830;9.262;2022-12-20T01:00:45;99176.59;;;1.93;90.96
7760;BME280;3924;48.830;9.262;2022-12-20T01:03:20;99158.97;;;2.04;90.81
7760;BME280;3924;48.830;9.262;2022-12-20T01:05:58;99145.78;;;2.09;90.56
7760;BME280;3924;48.830;9.262;2022-12-20T01:08:26;99142.06;;;2.10;90.90
7760;BME280;3924;48.830;9.262;2022-12-20T01:11:11;99147.41;;;2.10;90.86
7760;BME280;3924;48.830;9.262;2022-12-20T01:13:41;99155.06;;;2.06;90.45
7760;BME280;3924;48.830;9.262;2022-12-20T01:16:12;99157.34;;;2.03;90.69
7760;BME280;3924;48.830;9.262;2022-12-20T01:18:39;99173.03;;;1.99;90.66
7760;BME280;3924;48.830;9.262;2022-12-20T01:21:08;99175.91;;;1.98;90.74
7760;BME280;3924;48.830;9.262;2022-12-20T01:23:36;99176.13;;;1.96;90.82
7760;BME280;3924;48.830;9.262;2022-12-20T01:26:04;99187.41;;;1.98;90.97
7760;BME280;3924;48.830;9.262;2022-12-20T01:28:34;99182.06;;;1.98;90.85
7760;BME280;3924;48.830;9.262;2022-12-20T01:31:01;99182.28;;;1.97;91.05
7760;BME280;3924;48.830;9.262;2022-12-20T01:33:31;99178.22;;;1.94;90.85
7760;BME280;3924;48.830;9.262;2022-12-20T01:36:02;99171.44;;;1.91;90.83
7760;BME280;3924;48.830;9.262;2022-12-20T01:38:29;99162.84;;;1.89;90.60
7760;BME280;3924;48.830;9.262;2022-12-20T01:40:56;99161.19;;;1.88;90.85
7760;BME280;3924;48.830;9.262;2022-12-20T01:43:44;99155.47;;;1.85;90.90
7760;BME280;3924;48.830;9.262;2022-12-20T01:46:11;99156.16;;;1.80;90.79
7760;BME280;3924;48.830;9.262;2022-12-20T01:48:39;99146.50;;;1.79;90.61
7760;BME280;3924;48.830;9.262;2022-12-20T01:51:08;99150.19;;;1.78;90.89
7760;BME280;3924;48.830;9.262;2022-12-20T01:53:35;99144.03;;;1.78;90.86
7760;BME280;3924;48.830;9.262;2022-12-20T01:56:03;99144.41;;;1.81;91.02
7760;BME280;3924;48.830;9.262;2022-12-20T01:58:32;99143.75;;;1.86;91.10
7760;BME280;3924;48.830;9.262;2022-12-20T02:01:04;99138.19;;;1.87;90.93
7760;BME280;3924;48.830;9.262;2022-12-20T02:03:31;99139.00;;;1.88;90.89
7760;BME280;3924;48.830;9.262;2022-12-20T02:06:13;99155.84;;;1.88;90.75
7760;BME280;3924;48.830;9.262;2022-12-20T02:08:39;99142.72;;;1.87;91.05
7760;BME280;3924;48.830;9.262;2022-12-20T02:16:43;99111.47;;;1.87;91.11
7760;BME280;3924;48.830;9.262;2022-12-20T02:28:32;99110.56;;;1.94;91.18
7760;BME280;3924;48.830;9.262;2022-12-20T02:31:10;99098.25;;;1.92;90.92
7760;BME280;3924;48.830;9.262;2022-12-20T02:33:40;99104.19;;;1.95;90.93
7760;BME280;3924;48.830;9.262;2022-12-20T02:36:08;99100.69;;;1.94;90.94
7760;BME280;3924;48.830;9.262;2022-12-20T02:38:37;99092.28;;;1.90;90.94
7760;BME280;3924;48.830;9.262;2022-12-20T02:43:35;99104.91;;;1.83;90.86
7760;BME280;3924;48.830;9.262;2022-12-20T02:46:25;99103.75;;;1.79;91.20
7760;BME280;3924;48.830;9.262;2022-12-20T02:48:55;99093.47;;;1.76;91.31
7760;BME280;3924;48.830;9.262;2022-12-20T02:51:25;99098.22;;;1.74;91.17
7760;BME280;3924;48.830;9.262;2022-12-20T02:53:53;99097.84;;;1.71;91.42
7760;BME280;3924;48.830;9.262;2022-12-20T02:56:27;99092.97;;;1.68;91.37
7760;BME280;3924;48.830;9.262;2022-12-20T02:59:05;99098.88;;;1.70;91.38
7760;BME280;3924;48.830;9.262;2022-12-20T03:01:36;99076.69;;;1.69;91.29
7760;BME280;3924;48.830;9.262;2022-12-20T03:04:05;99075.06;;;1.68;91.43
7760;BME280;3924;48.830;9.262;2022-12-20T03:06:37;99068.09;;;1.67;91.14
7760;BME280;3924;48.830;9.262;2022-12-20T03:09:04;99070.75;;;1.67;91.58
7760;BME280;3924;48.830;9.262;2022-12-20T03:11:34;99065.78;;;1.71;91.40
7760;BME280;3924;48.830;9.262;2022-12-20T03:14:02;99074.19;;;1.74;91.26
7760;BME280;3924;48.830;9.262;2022-12-20T03:16:43;99070.47;;;1.75;91.44
7760;BME280;3924;48.830;9.262;2022-12-20T03:19:14;99062.84;;;1.79;91.39
7760;BME280;3924;48.830;9.262;2022-12-20T03:21:45;99057.19;;;1.87;91.55
7760;BME280;3924;48.830;9.262;2022-12-20T03:24:15;99077.88;;;1.91;91.13
7760;BME280;3924;48.830;9.262;2022-12-20T03:26:55;99063.28;;;1.94;91.24
7760;BME280;3924;48.830;9.262;2022-12-20T03:29:26;99067.34;;;1.97;91.10
7760;BME280;3924;48.830;9.262;2022-12-20T03:31:56;99059.31;;;1.97;91.32
7760;BME280;3924;48.830;9.262;2022-12-20T03:34:31;99052.94;;;1.98;91.20
7760;BME280;3924;48.830;9.262;2022-12-20T03:37:01;99059.91;;;1.99;91.18
7760;BME280;3924;48.830;9.262;2022-12-20T03:39:35;99042.22;;;1.98;91.03
7760;BME280;3924;48.830;9.262;2022-12-20T03:42:06;99051.31;;;1.97;91.21
7760;BME280;3924;48.830;9.262;2022-12-20T03:44:33;99069.44;;;1.95;90.97
7760;BME280;3924;48.830;9.262;2022-12-20T03:47:00;99060.38;;;1.96;91.06
7760;BME280;3924;48.830;9.262;2022-12-20T03:49:28;99059.91;;;1.99;91.47
7760;BME280;3924;48.830;9.262;2022-12-20T03:51:58;99051.69;;;2.00;91.34
7760;BME280;3924;48.830;9.262;2022-12-20T03:54:31;99059.47;;;2.02;91.13
7760;BME280;3924;48.830;9.262;2022-12-20T03:57:01;99054.72;;;2.04;91.12
7760;BME280;3924;48.830;9.262;2022-12-20T03:59:34;99060.63;;;2.06;91.29
7760;BME280;3924;48.830;9.262;2022-12-20T04:02:02;99068.47;;;2.07;91.42
7760;BME280;3924;48.830;9.262;2022-12-20T04:04:30;99054.03;;;2.08;91.13
7760;BME280;3924;48.830;9.262;2022-12-20T04:07:03;99059.00;;;2.05;90.97
7760;BME280;3924;48.830;9.262;2022-12-20T04:09:43;99047.50;;;2.04;91.38
7760;BME280;3924;48.830;9.262;2022-12-20T04:12:20;99037.41;;;2.06;91.44
7760;BME280;3924;48.830;9.262;2022-12-20T04:14:51;99044.97;;;2.09;91.40
7760;BME280;3924;48.830;9.262;2022-12-20T04:17:19;99046.84;;;2.09;91.00
7760;BME280;3924;48.830;9.262;2022-12-20T04:19:46;99022.19;;;2.07;91.12
7760;BME280;3924;48.830;9.262;2022-12-20T04:22:17;99014.16;;;2.07;91.44
7760;BME280;3924;48.830;9.262;2022-12-20T04:24:53;99009.84;;;2.06;91.42
7760;BME280;3924;48.830;9.262;2022-12-20T04:27:21;99028.53;;;2.06;91.55
7760;BME280;3924;48.830;9.262;2022-12-20T04:29:48;99028.53;;;2.06;91.75
7760;BME280;3924;48.830;9.262;2022-12-20T04:32:18;99023.19;;;2.06;91.33
7760;BME280;3924;48.830;9.262;2022-12-20T04:34:46;99029.00;;;2.03;91.36
7760;BME280;3924;48.830;9.262;2022-12-20T04:37:21;99041.34;;;2.04;91.19
7760;BME280;3924;48.830;9.262;2022-12-20T04:39:50;99054.72;;;2.04;91.40
7760;BME280;3924;48.830;9.262;2022-12-20T04:42:22;99046.69;;;2.04;91.51
7760;BME280;3924;48.830;9.262;2022-12-20T04:44:55;99034.38;;;2.03;91.28
7760;BME280;3924;48.830;9.262;2022-12-20T04:47:26;99018.78;;;2.00;91.18
7760;BME280;3924;48.830;9.262;2022-12-20T04:49:53;99018.16;;;1.98;91.45
7760;BME280;3924;48.830;9.262;2022-12-20T04:52:21;99017.59;;;1.96;91.40
7760;BME280;3924;48.830;9.262;2022-12-20T04:55:16;98998.28;;;1.94;91.63
7760;BME280;3924;48.830;9.262;2022-12-20T04:57:49;99009.00;;;1.94;91.22
7760;BME280;3924;48.830;9.262;2022-12-20T05:00:20;99002.81;;;1.93;91.37
7760;BME280;3924;48.830;9.262;2022-12-20T05:02:52;99007.47;;;1.98;91.65
7760;BME280;3924;48.830;9.262;2022-12-20T05:05:22;99006.22;;;2.00;91.43
7760;BME280;3924;48.830;9.262;2022-12-20T05:07:52;99001.81;;;2.06;91.30
7760;BME280;3924;48.830;9.262;2022-12-20T05:10:33;98995.44;;;2.07;91.64
7760;BME280;3924;48.830;9.262;2022-12-20T05:16:18;98981.25;;;2.06;91.53
7760;BME280;3924;48.830;9.262;2022-12-20T05:18:45;98992.53;;;2.08;91.33
7760;BME280;3924;48.830;9.262;2022-12-20T05:21:15;98997.06;;;2.08;91.54
7760;BME280;3924;48.830;9.262;2022-12-20T05:24:11;99002.66;;;2.06;91.52
7760;BME280;3924;48.830;9.262;2022-12-20T05:29:52;98978.34;;;2.08;91.55
7760;BME280;3924;48.830;9.262;2022-12-20T05:32:27;98978.94;;;2.10;91.29
7760;BME280;3924;48.830;9.262;2022-12-20T05:35:04;98971.97;;;2.09;91.41
7760;BME280;3924;48.830;9.262;2022-12-20T05:37:41;98979.75;;;2.10;91.78
7760;BME280;3924;48.830;9.262;2022-12-20T05:40:12;98973.59;;;2.10;91.34
7760;BME280;3924;48.830;9.262;2022-12-20T05:42:46;98972.41;;;2.06;91.28
7760;BME280;3924;48.830;9.262;2022-12-20T05:45:17;98982.09;;;2.07;91.47
7760;BME280;3924;48.830;9.262;2022-12-20T05:47:53;98985.78;;;2.06;91.53
7760;BME280;3924;48.830;9.262;2022-12-20T05:50:23;98978.78;;;2.05;91.41
7760;BME280;3924;48.830;9.262;2022-12-20T05:52:53;98975.53;;;2.03;91.65
7760;BME280;3924;48.830;9.262;2022-12-20T05:55:37;98960.53;;;2.02;91.58
7760;BME280;3924;48.830;9.262;2022-12-20T05:58:08;98951.47;;;2.03;91.59
7760;BME280;3924;48.830;9.262;2022-12-20T06:00:43;98948.81;;;2.03;91.81
7760;BME280;3924;48.830;9.262;2022-12-20T06:03:39;98950.00;;;2.07;91.44
7760;BME280;3924;48.830;9.262;2022-12-20T06:06:23;98948.13;;;2.07;91.68
7760;BME280;3924;48.830;9.262;2022-12-20T06:08:53;98953.69;;;2.06;91.71
7760;BME280;3924;48.830;9.262;2022-12-20T06:11:24;98946.72;;;2.05;91.50
7760;BME280;3924;48.830;9.262;2022-12-20T06:14:00;98948.81;;;2.03;91.52
7760;BME280;3924;48.830;9.262;2022-12-20T06:16:33;98959.03;;;2.06;91.58
7760;BME280;3924;48.830;9.262;2022-12-20T06:19:28;98965.81;;;2.08;91.74
7760;BME280;3924;48.830;9.262;2022-12-20T06:22:10;98965.00;;;2.08;91.56
7760;BME280;3924;48.830;9.262;2022-12-20T06:24:54;98969.72;;;2.06;91.56
7760;BME280;3924;48.830;9.262;2022-12-20T06:27:25;98963.56;;;2.05;91.46
7760;BME280;3924;48.830;9.262;2022-12-20T06:30:13;98963.56;;;2.05;91.71
7760;BME280;3924;48.830;9.262;2022-12-20T06:32:58;98953.25;;;2.09;91.61
7760;BME280;3924;48.830;9.262;2022-12-20T06:35:28;98959.16;;;2.11;91.41
7760;BME280;3924;48.830;9.262;2022-12-20T06:38:00;98957.31;;;2.11;91.41
7760;BME280;3924;48.830;9.262;2022-12-20T06:40:34;98975.81;;;2.13;91.61
7760;BME280;3924;48.830;9.262;2022-12-20T06:43:02;98970.81;;;2.16;91.71
7760;BME280;3924;48.830;9.262;2022-12-20T06:45:34;98967.09;;;2.17;91.71
7760;BME280;3924;48.830;9.262;2022-12-20T06:48:10;98975.50;;;2.21;91.58
7760;BME280;3924;48.830;9.262;2022-12-20T06:50:42;98974.22;;;2.24;91.47
7760;BME280;3924;48.830;9.262;2022-12-20T06:53:23;98979.34;;;2.25;91.73
7760;BME280;3924;48.830;9.262;2022-12-20T06:55:53;98983.44;;;2.28;91.67
7760;BME280;3924;48.830;9.262;2022-12-20T06:58:28;98973.53;;;2.28;91.49
7760;BME280;3924;48.830;9.262;2022-12-20T07:01:02;98977.25;;;2.27;91.69
7760;BME280;3924;48.830;9.262;2022-12-20T07:03:33;98975.41;;;2.28;91.82
7760;BME280;3924;48.830;9.262;2022-12-20T07:06:08;98964.81;;;2.33;92.21
7760;BME280;3924;48.830;9.262;2022-12-20T07:09:40;98957.97;;;2.37;91.66
7760;BME280;3924;48.830;9.262;2022-12-20T07:11:39;98963.31;;;2.37;91.47
7760;BME280;3924;48.830;9.262;2022-12-20T07:14:06;98961.47;;;2.37;91.64
7760;BME280;3924;48.830;9.262;2022-12-20T07:16:43;98958.34;;;2.40;91.52
7760;BME280;3924;48.830;9.262;2022-12-20T07:19:20;98962.75;;;2.46;91.72
7760;BME280;3924;48.830;9.262;2022-12-20T07:21:48;98965.78;;;2.50;91.65
7760;BME280;3924;48.830;9.262;2022-12-20T07:24:16;98964.16;;;2.49;91.86
7760;BME280;3924;48.830;9.262;2022-12-20T07:26:54;98969.84;;;2.53;91.90
7760;BME280;3924;48.830;9.262;2022-12-20T07:29:21;98972.09;;;2.56;91.59
7760;BME280;3924;48.830;9.262;2022-12-20T07:31:53;98967.78;;;2.55;91.52
7760;BME280;3924;48.830;9.262;2022-12-20T07:34:24;98964.50;;;2.53;91.74
7760;BME280;3924;48.830;9.262;2022-12-20T07:36:51;98959.16;;;2.53;91.50
7760;BME280;3924;48.830;9.262;2022-12-20T07:39:32;98964.50;;;2.53;91.56
7760;BME280;3924;48.830;9.262;2022-12-20T07:42:16;98962.44;;;2.55;91.60
7760;BME280;3924;48.830;9.262;2022-12-20T07:44:52;98964.88;;;2.56;91.46
7760;BME280;3924;48.830;9.262;2022-12-20T07:47:19;98965.69;;;2.57;91.55
7760;BME280;3924;48.830;9.262;2022-12-20T07:49:47;98952.31;;;2.57;91.46
7760;BME280;3924;48.830;9.262;2022-12-20T07:52:26;98955.00;;;2.57;91.60
7760;BME280;3924;48.830;9.262;2022-12-20T07:54:58;98951.03;;;2.59;91.46
7760;BME280;3924;48.830;9.262;2022-12-20T07:57:29;98948.47;;;2.64;91.55
7760;BME280;3924;48.830;9.262;2022-12-20T07:59:58;98949.41;;;2.70;91.51
7760;BME280;3924;48.830;9.262;2022-12-20T08:02:29;98956.75;;;2.74;91.55
7760;BME280;3924;48.830;9.262;2022-12-20T08:04:58;98956.53;;;2.76;91.16
7760;BME280;3924;48.830;9.262;2022-12-20T08:07:27;98953.38;;;2.79;91.72
7760;BME280;3924;48.830;9.262;2022-12-20T08:09:54;98965.25;;;2.83;91.27
7760;BME280;3924;48.830;9.262;2022-12-20T08:12:21;98950.34;;;2.87;91.35
7760;BME280;3924;48.830;9.262;2022-12-20T08:14:48;98948.28;;;2.89;91.41
7760;BME280;3924;48.830;9.262;2022-12-20T08:17:17;98952.09;;;2.93;91.41
7760;BME280;3924;48.830;9.262;2022-12-20T08:19:44;98950.59;;;2.97;91.33
7760;BME280;3924;48.830;9.262;2022-12-20T08:22:10;98948.03;;;3.03;91.18
7760;BME280;3924;48.830;9.262;2022-12-20T08:24:37;98941.94;;;3.19;91.15
7760;BME280;3924;48.830;9.262;2022-12-20T08:27:03;98940.03;;;3.43;91.32
7760;BME280;3924;48.830;9.262;2022-12-20T08:29:29;98928.22;;;3.67;90.93
7760;BME280;3924;48.830;9.262;2022-12-20T08:31:56;98927.28;;;3.90;90.97
7760;BME280;3924;48.830;9.262;2022-12-20T08:34:22;98931.91;;;4.06;90.55
7760;BME280;3924;48.830;9.262;2022-12-20T08:36:49;98928.56;;;4.16;90.27
7760;BME280;3924;48.830;9.262;2022-12-20T08:39:15;98920.13;;;4.24;90.35
7760;BME280;3924;48.830;9.262;2022-12-20T08:41:42;98917.47;;;4.41;90.20
7760;BME280;3924;48.830;9.262;2022-12-20T08:44:08;98913.22;;;4.45;89.91
7760;BME280;3924;48.830;9.262;2022-12-20T08:46:36;98905.25;;;4.50;90.01
7760;BME280;3924;48.830;9.262;2022-12-20T08:49:04;98916.25;;;4.49;89.95
7760;BME280;3924;48.830;9.262;2022-12-20T08:51:30;98919.56;;;4.39;90.16
7760;BME280;3924;48.830;9.262;2022-12-20T08:53:57;98918.25;;;4.25;90.48
7760;BME280;3924;48.830;9.262;2022-12-20T08:56:24;98907.59;;;4.13;90.10
7760;BME280;3924;48.830;9.262;2022-12-20T08:59:08;98899.72;;;4.06;90.48
7760;BME280;3924;48.830;9.262;2022-12-20T09:02:11;98908.41;;;4.14;90.74
7760;BME280;3924;48.830;9.262;2022-12-20T09:04:44;98903.16;;;4.19;90.62
7760;BME280;3924;48.830;9.262;2022-12-20T09:07:11;98895.16;;;4.24;90.70
7760;BME280;3924;48.830;9.262;2022-12-20T09:09:37;98906.56;;;4.31;90.58
7760;BME280;3924;48.830;9.262;2022-12-20T09:12:04;98907.22;;;4.38;90.74
7760;BME280;3924;48.830;9.262;2022-12-20T09:14:30;98902.91;;;4.37;90.21
7760;BME280;3924;48.830;9.262;2022-12-20T09:16:57;98899.66;;;4.35;90.51
7760;BME280;3924;48.830;9.262;2022-12-20T09:19:24;98899.31;;;4.31;90.64
7760;BME280;3924;48.830;9.262;2022-12-20T09:21:50;98896.97;;;4.35;90.25
7760;BME280;3924;48.830;9.262;2022-12-20T09:24:17;98895.66;;;4.37;90.58
7760;BME280;3924;48.830;9.262;2022-12-20T09:26:43;98893.41;;;4.46;90.52
7760;BME280;3924;48.830;9.262;2022-12-20T09:29:14;98890.31;;;4.54;90.20
7760;BME280;3924;48.830;9.262;2022-12-20T09:31:50;98881.84;;;4.62;90.30
7760;BME280;3924;48.830;9.262;2022-12-20T09:34:16;98894.03;;;4.70;89.96
7760;BME280;3924;48.830;9.262;2022-12-20T09:36:43;98889.13;;;4.84;90.16
7760;BME280;3924;48.830;9.262;2022-12-20T09:39:10;98891.38;;;4.92;89.86
7760;BME280;3924;48.830;9.262;2022-12-20T09:41:38;98895.47;;;4.94;89.80
7760;BME280;3924;48.830;9.262;2022-12-20T09:44:31;98899.53;;;4.97;89.60
7760;BME280;3924;48.830;9.262;2022-12-20T09:47:03;98877.22;;;4.97;89.81
7760;BME280;3924;48.830;9.262;2022-12-20T09:49:39;98877.22;;;4.97;90.17
7760;BME280;3924;48.830;9.262;2022-12-20T09:57:51;98871.94;;;5.24;89.73
7760;BME280;3924;48.830;9.262;2022-12-20T10:00:22;98866.19;;;5.37;89.80
7760;BME280;3924;48.830;9.262;2022-12-20T10:02:49;98866.81;;;5.44;89.36
7760;BME280;3924;48.830;9.262;2022-12-20T10:05:53;98862.53;;;5.48;89.77
7760;BME280;3924;48.830;9.262;2022-12-20T10:08:44;98847.81;;;5.56;89.40
7760;BME280;3924;48.830;9.262;2022-12-20T10:11:30;98848.69;;;5.61;88.98
7760;BME280;3924;48.830;9.262;2022-12-20T10:14:19;98844.09;;;5.57;89.60
7760;BME280;3924;48.830;9.262;2022-12-20T10:16:52;98845.19;;;5.61;89.43
7760;BME280;3924;48.830;9.262;2022-12-20T10:22:20;98849.91;;;5.75;89.09
7760;BME280;3924;48.830;9.262;2022-12-20T10:24:57;98853.13;;;5.72;89.24
7760;BME280;3924;48.830;9.262;2022-12-20T10:27:26;98839.13;;;5.70;89.59
7760;BME280;3924;48.830;9.262;2022-12-20T10:29:52;98836.47;;;5.75;89.39
7760;BME280;3924;48.830;9.262;2022-12-20T10:32:21;98845.72;;;5.85;89.27
7760;BME280;3924;48.830;9.262;2022-12-20T10:35:00;98832.81;;;5.87;89.10
7760;BME280;3924;48.830;9.262;2022-12-20T10:38:04;98829.06;;;5.88;89.18
7760;BME280;3924;48.830;9.262;2022-12-20T10:40:37;98826.72;;;5.91;88.95
7760;BME280;3924;48.830;9.262;2022-12-20T10:43:24;98826.19;;;5.94;89.04
7760;BME280;3924;48.830;9.262;2022-12-20T10:46:04;98824.84;;;5.92;88.71
7760;BME280;3924;48.830;9.262;2022-12-20T10:48:34;98823.22;;;5.91;88.95
7760;BME280;3924;48.830;9.262;2022-12-20T10:51:02;98820.19;;;5.87;89.00
7760;BME280;3924;48.830;9.262;2022-12-20T10:53:31;98821.25;;;5.86;89.34
7760;BME280;3924;48.830;9.262;2022-12-20T10:56:15;98819.88;;;5.84;89.22
7760;BME280;3924;48.830;9.262;2022-12-20T10:59:00;98818.81;;;5.85;89.36
7760;BME280;3924;48.830;9.262;2022-12-20T11:01:30;98809.97;;;5.89;89.14
7760;BME280;3924;48.830;9.262;2022-12-20T11:04:02;98804.94;;;5.93;89.08
7760;BME280;3924;48.830;9.262;2022-12-20T11:12:13;98794.81;;;5.78;89.03
7760;BME280;3924;48.830;9.262;2022-12-20T11:14:42;98788.56;;;5.72;89.45
7760;BME280;3924;48.830;9.262;2022-12-20T11:28:20;98772.28;;;6.16;88.39
7760;BME280;3924;48.830;9.262;2022-12-20T11:50:25;98732.25;;;6.30;88.35
7760;BME280;3924;48.830;9.262;2022-12-20T11:53:34;98734.13;;;6.29;87.98
7760;BME280;3924;48.830;9.262;2022-12-20T11:56:07;98726.03;;;6.24;88.41
7760;BME280;3924;48.830;9.262;2022-12-20T12:01:21;98734.53;;;6.06;88.79
7760;BME280;3924;48.830;9.262;2022-12-20T12:06:24;98705.03;;;5.89;89.11
7760;BME280;3924;48.830;9.262;2022-12-20T12:11:24;98733.72;;;5.73;88.79
7760;BME280;3924;48.830;9.262;2022-12-20T12:14:26;98746.88;;;5.70;88.98
7760;BME280;3924;48.830;9.262;2022-12-20T12:16:58;98746.03;;;5.69;88.83
7760;BME280;3924;48.830;9.262;2022-12-20T12:19:26;98736.91;;;5.70;89.01
7760;BME280;3924;48.830;9.262;2022-12-20T12:22:01;98724.53;;;5.69;88.78
7760;BME280;3924;48.830;9.262;2022-12-20T12:24:34;98717.78;;;5.67;89.03
7760;BME280;3924;48.830;9.262;2022-12-20T12:27:04;98713.47;;;5.66;88.66
7760;BME280;3924;48.830;9.262;2022-12-20T12:29:38;98709.22;;;5.70;88.82
7760;BME280;3924;48.830;9.262;2022-12-20T12:32:16;98696.59;;;5.75;88.95
7760;BME280;3924;48.830;9.262;2022-12-20T12:35:03;98696.16;;;5.84;88.86
7760;BME280;3924;48.830;9.262;2022-12-20T12:45:45;98699.31;;;6.13;88.64
7760;BME280;3924;48.830;9.262;2022-12-20T12:48:28;98708.72;;;6.10;88.32
7760;BME280;3924;48.830;9.262;2022-12-20T12:50:58;98707.09;;;6.09;88.61
7760;BME280;3924;48.830;9.262;2022-12-20T12:53:41;98702.78;;;6.08;88.40
7760;BME280;3924;48.830;9.262;2022-12-20T12:56:38;98688.25;;;6.09;88.16
7760;BME280;3924;48.830;9.262;2022-12-20T12:59:23;98677.75;;;6.08;88.26
7760;BME280;3924;48.830;9.262;2022-12-20T13:20:35;98641.47;;;6.15;88.27
7760;BME280;3924;48.830;9.262;2022-12-20T13:25:39;98636.03;;;6.10;87.97
7760;BME280;3924;48.830;9.262;2022-12-20T13:30:44;98647.47;;;6.33;87.88
7760;BME280;3924;48.830;9.262;2022-12-20T13:33:38;98657.56;;;6.63;87.83
7760;BME280;3924;48.830;9.262;2022-12-20T13:41:33;98659.53;;;6.88;87.84
7760;BME280;3924;48.830;9.262;2022-12-20T13:46:46;98661.97;;;6.99;87.19
7760;BME280;3924;48.830;9.262;2022-12-20T13:49:25;98659.81;;;7.06;87.39
7760;BME280;3924;48.830;9.262;2022-12-20T13:54:32;98646.59;;;7.05;86.74
7760;BME280;3924;48.830;9.262;2022-12-20T13:57:04;98636.38;;;7.07;87.52
7760;BME280;3924;48.830;9.262;2022-12-20T13:59:31;98635.56;;;7.06;87.32
7760;BME280;3924;48.830;9.262;2022-12-20T14:02:01;98628.56;;;7.05;86.92
7760;BME280;3924;48.830;9.262;2022-12-20T14:04:44;98639.59;;;6.99;86.54
7760;BME280;3924;48.830;9.262;2022-12-20T14:07:13;98639.03;;;6.87;86.78
7760;BME280;3924;48.830;9.262;2022-12-20T14:09:44;98629.59;;;6.74;86.97
7760;BME280;3924;48.830;9.262;2022-12-20T14:12:12;98614.47;;;6.63;87.36
7760;BME280;3924;48.830;9.262;2022-12-20T14:14:48;98622.25;;;6.54;87.66
7760;BME280;3924;48.830;9.262;2022-12-20T14:17:24;98623.84;;;6.50;87.69
7760;BME280;3924;48.830;9.262;2022-12-20T14:23:00;98615.72;;;6.45;87.43
7760;BME280;3924;48.830;9.262;2022-12-20T14:25:36;98616.00;;;6.43;87.71
7760;BME280;3924;48.830;9.262;2022-12-20T14:28:04;98615.75;;;6.40;87.17
7760;BME280;3924;48.830;9.262;2022-12-20T14:30:41;98609.78;;;6.38;87.21
7760;BME280;3924;48.830;9.262;2022-12-20T14:35:54;98600.59;;;6.28;87.39
7760;BME280;3924;48.830;9.262;2022-12-20T14:38:23;98600.56;;;6.23;87.82
7760;BME280;3924;48.830;9.262;2022-12-20T14:40:50;98608.94;;;6.22;87.47
7760;BME280;3924;48.830;9.262;2022-12-20T14:43:31;98604.88;;;6.19;87.97
7760;BME280;3924;48.830;9.262;2022-12-20T14:46:18;98603.50;;;6.12;87.60
7760;BME280;3924;48.830;9.262;2022-12-20T14:48:45;98594.06;;;6.04;87.52
7760;BME280;3924;48.830;9.262;2022-12-20T14:51:18;98598.59;;;5.98;87.84
7760;BME280;3924;48.830;9.262;2022-12-20T14:53:48;98610.41;;;5.92;87.76
7760;BME280;3924;48.830;9.262;2022-12-20T14:56:17;98612.22;;;5.87;87.98
7760;BME280;3924;48.830;9.262;2022-12-20T14:59:04;98609.53;;;5.87;87.88
7760;BME280;3924;48.830;9.262;2022-12-20T15:01:32;98603.06;;;5.88;87.85
7760;BME280;3924;48.830;9.262;2022-12-20T15:04:23;98589.34;;;5.84;87.82
7760;BME280;3924;48.830;9.262;2022-12-20T15:06:50;98579.91;;;5.82;87.94
7760;BME280;3924;48.830;9.262;2022-12-20T15:09:20;98568.34;;;5.81;87.98
7760;BME280;3924;48.830;9.262;2022-12-20T15:11:47;98573.97;;;5.80;87.54
7760;BME280;3924;48.830;9.262;2022-12-20T15:16:49;98576.94;;;5.78;87.41
7760;BME280;3924;48.830;9.262;2022-12-20T15:19:15;98576.63;;;5.74;88.15
7760;BME280;3924;48.830;9.262;2022-12-20T15:21:42;98578.78;;;5.72;87.66
7760;BME280;3924;48.830;9.262;2022-12-20T15:24:15;98574.19;;;5.68;87.88
7760;BME280;3924;48.830;9.262;2022-12-20T15:26:43;98571.22;;;5.64;88.02
7760;BME280;3924;48.830;9.262;2022-12-20T15:29:28;98568.47;;;5.59;87.85
7760;BME280;3924;48.830;9.262;2022-12-20T15:32:22;98579.25;;;5.59;87.90
7760;BME280;3924;48.830;9.262;2022-12-20T15:34:49;98579.78;;;5.56;88.10
7760;BME280;3924;48.830;9.262;2022-12-20T15:37:16;98580.28;;;5.53;87.80
7760;BME280;3924;48.830;9.262;2022-12-20T15:39:44;98577.00;;;5.46;88.04
7760;BME280;3924;48.830;9.262;2022-12-20T15:42:14;98582.34;;;5.41;88.23
7760;BME280;3924;48.830;9.262;2022-12-20T15:44:42;98582.06;;;5.37;88.07
7760;BME280;3924;48.830;9.262;2022-12-20T15:47:12;98585.81;;;5.36;88.66
7760;BME280;3924;48.830;9.262;2022-12-20T15:49:39;98579.63;;;5.36;88.17
7760;BME280;3924;48.830;9.262;2022-12-20T15:52:19;98572.59;;;5.35;88.12
7760;BME280;3924;48.830;9.262;2022-12-20T15:54:47;98576.69;;;5.37;88.11
7760;BME280;3924;48.830;9.262;2022-12-20T15:57:14;98572.13;;;5.38;87.91
7760;BME280;3924;48.830;9.262;2022-12-20T15:59:41;98565.13;;;5.37;87.91
7760;BME280;3924;48.830;9.262;2022-12-20T16:02:27;98567.50;;;5.33;88.32
7760;BME280;3924;48.830;9.262;2022-12-20T16:04:55;98567.75;;;5.32;88.29
7760;BME280;3924;48.830;9.262;2022-12-20T16:07:22;98569.91;;;5.30;88.00
7760;BME280;3924;48.830;9.262;2022-12-20T16:09:49;98584.16;;;5.30;88.16